createdAt,value
2022-10-11T00:01:26.284Z,19.60
2022-10-11T00:03:57.651Z,19.90
2022-10-11T00:06:29.158Z,23.00
2022-10-11T00:09:00.705Z,23.20
2022-10-11T00:11:32.350Z,22.80
2022-10-11T00:14:03.771Z,22.10
2022-10-11T00:16:35.258Z,21.90
2022-10-11T00:19:06.819Z,21.70
2022-10-11T00:21:38.670Z,22.20
2022-10-11T00:24:12.010Z,21.70
2022-10-11T00:26:46.859Z,21.70
2022-10-11T00:29:18.965Z,21.70
2022-10-11T00:31:50.343Z,21.60
2022-10-11T00:34:21.768Z,21.90
2022-10-11T00:36:53.127Z,23.20
2022-10-11T00:39:24.648Z,22.40
2022-10-11T00:41:56.746Z,20.70
2022-10-11T00:44:30.319Z,20.60
2022-10-11T00:47:03.550Z,19.40
2022-10-11T00:49:41.949Z,20.50
2022-10-11T00:52:18.503Z,19.80
2022-10-11T00:54:51.316Z,24.00
2022-10-11T00:57:27.259Z,21.80
2022-10-11T00:59:59.769Z,21.70
2022-10-11T01:02:31.484Z,20.20
2022-10-11T01:05:27.555Z,19.60
2022-10-11T01:07:57.029Z,21.10
2022-10-11T01:10:28.891Z,19.20
2022-10-11T01:13:21.321Z,19.80
2022-10-11T01:16:00.461Z,18.90
2022-10-11T01:18:43.711Z,19.50
2022-10-11T01:21:27.236Z,18.20
2022-10-11T01:24:34.813Z,18.50
2022-10-11T01:27:40.877Z,17.10
2022-10-11T01:30:22.057Z,15.90
2022-10-11T01:33:06.514Z,15.30
2022-10-11T01:35:42.594Z,15.10
2022-10-11T01:38:22.947Z,14.30
2022-10-11T01:40:57.780Z,13.70
2022-10-11T01:43:30.058Z,17.20
2022-10-11T01:46:03.528Z,16.70
2022-10-11T01:51:05.788Z,14.30
2022-10-11T01:54:00.732Z,14.70
2022-10-11T01:56:50.544Z,14.60
2022-10-11T01:59:34.282Z,13.00
2022-10-11T02:02:20.386Z,13.00
2022-10-11T02:04:58.975Z,13.70
2022-10-11T02:07:39.567Z,12.00
2022-10-11T02:10:16.996Z,12.20
2022-10-11T02:12:55.084Z,12.10
2022-10-11T02:15:31.701Z,10.80
2022-10-11T02:18:07.697Z,10.20
2022-10-11T02:20:42.436Z,8.20
2022-10-11T02:23:17.980Z,8.00
2022-10-11T02:25:51.163Z,6.80
2022-10-11T02:28:26.387Z,6.20
2022-10-11T02:31:01.107Z,8.00
2022-10-11T02:33:37.443Z,7.50
2022-10-11T02:36:17.537Z,7.20
2022-10-11T02:38:54.022Z,6.90
2022-10-11T02:41:31.086Z,5.90
2022-10-11T02:44:08.996Z,6.60
2022-10-11T02:46:42.748Z,6.60
2022-10-11T02:51:44.847Z,5.70
2022-10-11T02:54:16.348Z,5.40
2022-10-11T02:56:47.800Z,5.60
2022-10-11T02:59:19.344Z,5.90
2022-10-11T03:01:50.787Z,5.80
2022-10-11T03:04:22.249Z,5.40
2022-10-11T03:06:53.615Z,4.60
2022-10-11T03:09:25.106Z,5.00
2022-10-11T03:11:56.533Z,4.90
2022-10-11T03:14:28.161Z,5.00
2022-10-11T03:17:17.185Z,5.40
2022-10-11T03:19:51.557Z,5.30
2022-10-11T03:22:23.335Z,4.90
2022-10-11T03:24:57.510Z,4.80
2022-10-11T03:27:32.558Z,5.20
2022-10-11T03:30:04.851Z,5.10
2022-10-11T03:32:36.238Z,4.80
2022-10-11T03:35:09.515Z,6.00
2022-10-11T03:37:41.045Z,5.40
2022-10-11T03:40:14.367Z,5.50
2022-10-11T03:42:45.755Z,5.50
2022-10-11T03:45:17.246Z,5.40
2022-10-11T03:47:48.656Z,6.00
2022-10-11T03:50:20.168Z,5.60
2022-10-11T03:52:51.825Z,5.60
2022-10-11T03:55:23.351Z,5.20
2022-10-11T03:57:54.798Z,4.50
2022-10-11T04:00:26.372Z,6.10
2022-10-11T04:02:57.911Z,5.20
2022-10-11T04:05:29.409Z,5.70
2022-10-11T04:08:00.853Z,5.20
2022-10-11T04:10:32.254Z,5.30
2022-10-11T04:13:04.243Z,5.40
2022-10-11T04:15:35.675Z,5.60
2022-10-11T04:18:07.575Z,5.50
2022-10-11T04:20:39.221Z,5.20
2022-10-11T04:23:10.868Z,5.80
2022-10-11T04:25:42.330Z,13.60
2022-10-11T04:28:13.879Z,35.80
2022-10-11T04:30:45.484Z,33.10
2022-10-11T04:33:16.996Z,25.00
2022-10-11T04:35:48.401Z,9.30
2022-10-11T04:38:19.885Z,6.20
2022-10-11T04:40:51.451Z,8.00
2022-10-11T04:43:23.104Z,7.60
2022-10-11T04:45:55.585Z,7.30
2022-10-11T04:48:27.297Z,6.80
2022-10-11T04:50:58.728Z,7.40
2022-10-11T04:53:30.460Z,7.30
2022-10-11T04:56:04.924Z,8.10
2022-10-11T04:58:37.874Z,7.60
2022-10-11T05:01:09.841Z,7.90
2022-10-11T05:03:41.301Z,8.00
2022-10-11T05:06:13.233Z,7.90
2022-10-11T05:08:45.115Z,8.30
2022-10-11T05:11:18.654Z,8.00
2022-10-11T05:13:50.121Z,8.40
2022-10-11T05:16:21.622Z,8.10
2022-10-11T05:18:53.036Z,7.80
2022-10-11T05:21:26.310Z,8.80
2022-10-11T05:23:58.665Z,8.00
2022-10-11T05:26:30.922Z,8.30
2022-10-11T05:29:02.390Z,8.50
2022-10-11T05:31:33.894Z,9.50
2022-10-11T05:34:05.462Z,9.70
2022-10-11T05:36:36.912Z,9.80
2022-10-11T05:39:08.674Z,10.40
2022-10-11T05:41:40.135Z,11.10
2022-10-11T05:44:11.693Z,10.70
2022-10-11T05:46:43.133Z,10.60
2022-10-11T05:49:14.584Z,11.60
2022-10-11T05:51:46.039Z,11.00
2022-10-11T05:54:17.499Z,9.80
2022-10-11T05:56:49.048Z,9.90
2022-10-11T05:59:20.458Z,10.80
2022-10-11T06:01:51.987Z,11.00
2022-10-11T06:04:23.502Z,12.10
2022-10-11T06:06:55.059Z,11.60
2022-10-11T06:09:26.436Z,11.80
2022-10-11T06:11:58.067Z,11.30
2022-10-11T06:14:29.836Z,11.40
2022-10-11T06:17:01.269Z,10.90
2022-10-11T06:19:32.736Z,10.20
2022-10-11T06:22:04.237Z,12.10
2022-10-11T06:24:35.590Z,11.70
2022-10-11T06:27:08.145Z,9.00
2022-10-11T06:29:39.989Z,8.10
2022-10-11T06:32:13.315Z,10.40
2022-10-11T06:34:44.726Z,10.00
2022-10-11T06:37:16.327Z,10.30
2022-10-11T06:39:47.737Z,10.40
2022-10-11T06:42:19.190Z,12.00
2022-10-11T06:44:50.648Z,11.10
2022-10-11T06:47:22.032Z,10.90
2022-10-11T06:49:53.436Z,13.90
2022-10-11T06:52:24.924Z,14.70
2022-10-11T06:54:56.320Z,16.90
2022-10-11T06:57:28.785Z,14.80
2022-10-11T07:00:00.399Z,14.80
2022-10-11T07:02:31.845Z,15.30
2022-10-11T07:05:03.292Z,16.00
2022-10-11T07:07:34.648Z,14.40
2022-10-11T07:10:07.204Z,13.80
2022-10-11T07:12:38.780Z,19.50
2022-10-11T07:15:12.932Z,15.10
2022-10-11T07:17:44.350Z,12.60
2022-10-11T07:20:16.007Z,11.00
2022-10-11T07:22:47.469Z,10.40
2022-10-11T07:25:19.022Z,11.60
2022-10-11T07:27:50.415Z,10.10
2022-10-11T07:30:22.131Z,10.10
2022-10-11T07:32:53.524Z,9.80
2022-10-11T07:35:25.543Z,9.00
2022-10-11T07:37:56.955Z,9.70
2022-10-11T07:40:28.659Z,9.20
2022-10-11T07:43:00.993Z,9.20
2022-10-11T07:45:32.576Z,9.20
2022-10-11T07:48:03.954Z,9.10
2022-10-11T07:50:35.690Z,9.80
2022-10-11T07:53:07.122Z,9.60
2022-10-11T07:55:40.293Z,10.50
2022-10-11T07:58:13.328Z,10.80
2022-10-11T08:00:44.744Z,8.90
2022-10-11T08:03:16.229Z,9.20
2022-10-11T08:05:47.655Z,9.20
2022-10-11T08:08:19.118Z,9.90
2022-10-11T08:10:50.706Z,9.30
2022-10-11T08:13:22.114Z,9.10
2022-10-11T08:15:54.049Z,8.30
2022-10-11T08:18:25.966Z,8.70
2022-10-11T08:20:57.436Z,7.40
2022-10-11T08:23:28.976Z,7.40
2022-10-11T08:26:00.727Z,7.20
2022-10-11T08:28:32.655Z,7.90
2022-10-11T08:31:04.770Z,8.20
2022-10-11T08:33:36.226Z,7.40
2022-10-11T08:36:10.213Z,8.20
2022-10-11T08:38:43.222Z,8.10
2022-10-11T08:41:30.572Z,8.10
2022-10-11T08:44:15.521Z,9.50
2022-10-11T08:46:56.920Z,9.40
2022-10-11T08:49:34.611Z,8.70
2022-10-11T08:52:12.408Z,8.80
2022-10-11T08:54:49.485Z,7.30
2022-10-11T08:57:23.866Z,8.40
2022-10-11T08:59:57.744Z,7.10
2022-10-11T09:03:06.868Z,7.30
2022-10-11T09:05:40.759Z,9.20
2022-10-11T09:08:22.239Z,9.50
2022-10-11T09:11:05.683Z,9.80
2022-10-11T09:13:58.846Z,7.80
2022-10-11T09:16:40.324Z,8.10
2022-10-11T09:19:33.347Z,8.20
2022-10-11T09:22:15.998Z,8.20
2022-10-11T09:25:01.563Z,11.80
2022-10-11T09:28:01.149Z,12.30
2022-10-11T09:30:29.058Z,9.60
2022-10-11T09:33:11.888Z,8.40
2022-10-11T09:35:47.547Z,8.70
2022-10-11T09:38:36.711Z,8.60
2022-10-11T09:41:16.253Z,8.10
2022-10-11T09:43:51.487Z,7.20
2022-10-11T09:46:30.822Z,8.10
2022-10-11T09:49:04.948Z,7.50
2022-10-11T09:54:10.512Z,7.00
2022-10-11T09:56:46.623Z,7.40
2022-10-11T09:59:30.685Z,7.40
2022-10-11T10:02:24.709Z,7.60
2022-10-11T10:05:05.403Z,8.20
2022-10-11T10:07:39.520Z,8.20
2022-10-11T10:10:29.588Z,7.40
2022-10-11T10:13:03.932Z,9.20
2022-10-11T10:15:38.050Z,7.80
2022-10-11T10:18:19.938Z,7.30
2022-10-11T10:20:55.849Z,7.40
2022-10-11T10:23:31.413Z,7.00
2022-10-11T10:26:18.866Z,7.30
2022-10-11T10:29:03.379Z,6.60
2022-10-11T10:32:01.932Z,7.60
2022-10-11T10:34:35.183Z,7.60
2022-10-11T10:37:14.211Z,7.00
2022-10-11T10:39:49.363Z,6.50
2022-10-11T10:42:22.359Z,6.10
2022-10-11T10:44:58.722Z,6.60
2022-10-11T10:47:46.144Z,6.40
2022-10-11T10:50:24.599Z,6.30
2022-10-11T10:53:15.458Z,5.80
2022-10-11T10:55:52.867Z,5.40
2022-10-11T10:58:43.446Z,4.70
2022-10-11T11:01:21.908Z,5.30
2022-10-11T11:03:58.935Z,4.50
2022-10-11T11:06:37.783Z,4.60
2022-10-11T11:09:29.395Z,4.40
2022-10-11T11:12:15.187Z,4.00
2022-10-11T11:14:56.567Z,4.20
2022-10-11T11:17:40.717Z,3.90
2022-10-11T11:23:02.108Z,4.40
2022-10-11T11:25:44.885Z,4.10
2022-10-11T11:28:42.611Z,8.80
2022-10-11T11:31:27.393Z,5.30
2022-10-11T11:34:06.320Z,4.50
2022-10-11T11:36:46.992Z,4.90
2022-10-11T11:39:21.849Z,4.60
2022-10-11T11:41:59.423Z,4.20
2022-10-11T11:44:37.122Z,3.90
2022-10-11T11:47:13.377Z,4.40
2022-10-11T11:49:49.336Z,4.50
2022-10-11T11:52:28.032Z,5.00
2022-10-11T11:55:06.544Z,4.60
2022-10-11T11:57:54.943Z,5.00
2022-10-11T12:00:30.891Z,3.60
2022-10-11T12:03:04.859Z,4.60
2022-10-11T12:05:37.946Z,4.00
2022-10-11T12:08:25.849Z,3.20
2022-10-11T12:11:04.448Z,2.90
2022-10-11T12:13:38.917Z,3.10
2022-10-11T12:16:15.599Z,2.30
2022-10-11T12:19:02.051Z,3.60
2022-10-11T12:21:36.051Z,2.50
2022-10-11T12:24:23.594Z,2.40
2022-10-11T12:26:58.651Z,2.90
2022-10-11T12:29:49.743Z,2.90
2022-10-11T12:32:52.128Z,3.20
2022-10-11T12:35:48.649Z,3.00
2022-10-11T12:38:23.386Z,3.00
2022-10-11T12:40:57.248Z,2.80
2022-10-11T12:43:57.301Z,2.70
2022-10-11T12:46:58.829Z,3.40
2022-10-11T12:49:42.024Z,2.40
2022-10-11T12:52:30.360Z,2.30
2022-10-11T12:55:31.300Z,2.40
2022-10-11T12:58:30.117Z,2.50
2022-10-11T13:01:35.617Z,2.50
2022-10-11T13:04:10.974Z,3.10
2022-10-11T13:06:49.499Z,3.60
2022-10-11T13:09:29.754Z,3.20
2022-10-11T13:12:05.513Z,2.40
2022-10-11T13:14:43.621Z,2.90
2022-10-11T13:17:21.946Z,3.40
2022-10-11T13:20:02.830Z,3.60
2022-10-11T13:22:39.378Z,2.90
2022-10-11T13:25:16.069Z,3.50
2022-10-11T13:27:49.251Z,2.60
2022-10-11T13:30:26.031Z,2.60
2022-10-11T13:32:58.959Z,2.50
2022-10-11T13:35:34.535Z,3.00
2022-10-11T13:38:10.388Z,3.00
2022-10-11T13:40:42.074Z,2.30
2022-10-11T13:43:15.932Z,2.80
2022-10-11T13:45:47.744Z,2.70
2022-10-11T13:48:19.554Z,4.20
2022-10-11T13:51:07.888Z,3.50
2022-10-11T13:53:39.412Z,3.50
2022-10-11T13:56:12.629Z,3.40
2022-10-11T13:58:48.589Z,2.20
2022-10-11T14:01:23.354Z,2.00
2022-10-11T14:04:00.424Z,2.40
2022-10-11T14:06:44.213Z,2.50
2022-10-11T14:09:27.755Z,2.20
2022-10-11T14:12:33.243Z,2.30
2022-10-11T14:15:06.303Z,2.70
2022-10-11T14:17:44.835Z,2.60
2022-10-11T14:20:21.192Z,2.10
2022-10-11T14:22:55.089Z,2.00
2022-10-11T14:25:26.624Z,2.80
2022-10-11T14:27:58.551Z,2.20
2022-10-11T14:30:31.930Z,2.30
2022-10-11T14:33:04.020Z,2.30
2022-10-11T14:35:35.621Z,1.80
2022-10-11T14:38:07.169Z,1.90
2022-10-11T14:40:38.589Z,2.50
2022-10-11T14:43:10.105Z,1.80
2022-10-11T14:45:41.659Z,2.00
2022-10-11T14:48:13.274Z,1.80
2022-10-11T14:50:48.124Z,3.10
2022-10-11T14:53:19.645Z,2.20
2022-10-11T14:55:51.239Z,2.30
2022-10-11T14:58:22.670Z,2.30
2022-10-11T15:00:54.126Z,2.20
2022-10-11T15:03:25.683Z,2.20
2022-10-11T15:05:57.249Z,1.90
2022-10-11T15:08:28.805Z,1.50
2022-10-11T15:11:00.361Z,2.20
2022-10-11T15:13:32.012Z,2.20
2022-10-11T15:16:03.827Z,2.00
2022-10-11T15:18:35.639Z,2.60
2022-10-11T15:21:07.920Z,2.20
2022-10-11T15:23:39.324Z,2.20
2022-10-11T15:26:14.543Z,2.20
2022-10-11T15:28:46.704Z,2.30
2022-10-11T15:31:18.907Z,2.20
2022-10-11T15:33:51.077Z,2.80
2022-10-11T15:36:24.133Z,2.70
2022-10-11T15:38:55.548Z,2.50
2022-10-11T15:41:27.325Z,2.90
2022-10-11T15:43:58.750Z,2.60
2022-10-11T15:46:30.206Z,2.70
2022-10-11T15:49:06.536Z,3.20
2022-10-11T15:51:38.275Z,3.10
2022-10-11T15:54:10.121Z,3.20
2022-10-11T15:56:41.595Z,3.50
2022-10-11T15:59:13.340Z,4.30
2022-10-11T16:01:44.973Z,4.70
2022-10-11T16:04:16.449Z,5.60
2022-10-11T16:06:48.100Z,5.50
2022-10-11T16:09:19.617Z,6.20
2022-10-11T16:11:51.057Z,8.00
2022-10-11T16:14:22.480Z,10.10
2022-10-11T16:16:53.958Z,11.80
2022-10-11T16:19:25.396Z,13.30
2022-10-11T16:21:56.929Z,15.00
2022-10-11T16:24:28.366Z,15.20
2022-10-11T16:26:59.770Z,13.40
2022-10-11T16:29:31.585Z,13.60
2022-10-11T16:32:03.148Z,13.00
2022-10-11T16:34:35.409Z,13.20
2022-10-11T16:37:06.863Z,11.90
2022-10-11T16:39:38.327Z,13.70
2022-10-11T16:42:09.752Z,13.50
2022-10-11T16:44:41.751Z,15.40
2022-10-11T16:47:13.300Z,14.70
2022-10-11T16:49:46.023Z,15.10
2022-10-11T16:52:18.047Z,14.20
2022-10-11T16:54:49.977Z,15.50
2022-10-11T16:57:21.768Z,14.40
2022-10-11T16:59:53.530Z,15.00
2022-10-11T17:02:32.088Z,14.00
2022-10-11T17:05:04.209Z,14.50
2022-10-11T17:07:37.208Z,13.90
2022-10-11T17:10:10.697Z,13.80
2022-10-11T17:12:46.524Z,14.00
2022-10-11T17:15:22.045Z,13.30
2022-10-11T17:17:56.231Z,14.50
2022-10-11T17:20:27.697Z,13.50
2022-10-11T17:22:59.231Z,15.90
2022-10-11T17:25:30.815Z,16.30
2022-10-11T17:28:02.456Z,16.50
2022-10-11T17:30:34.011Z,16.10
2022-10-11T17:33:06.169Z,13.10
2022-10-11T17:35:37.591Z,11.80
2022-10-11T17:38:09.072Z,12.90
2022-10-11T17:40:40.524Z,13.70
2022-10-11T17:43:12.088Z,15.00
2022-10-11T17:45:43.521Z,14.10
2022-10-11T17:48:14.982Z,14.30
2022-10-11T17:50:50.505Z,12.40
2022-10-11T17:53:22.499Z,15.60
2022-10-11T17:55:54.402Z,15.50
2022-10-11T17:58:27.041Z,17.40
2022-10-11T18:01:04.621Z,18.60
2022-10-11T18:03:37.029Z,21.00
2022-10-11T18:06:10.684Z,25.20
2022-10-11T18:11:16.898Z,25.30
2022-10-11T18:13:50.547Z,24.00
2022-10-11T18:16:24.113Z,23.60
2022-10-11T18:18:57.488Z,24.60
2022-10-11T18:21:34.363Z,24.80
2022-10-11T18:24:10.875Z,22.50
2022-10-11T18:26:42.717Z,22.50
2022-10-11T18:29:15.099Z,22.30
2022-10-11T18:31:46.950Z,20.90
2022-10-11T18:34:18.379Z,21.30
2022-10-11T18:36:49.865Z,20.00
2022-10-11T18:39:22.163Z,17.20
2022-10-11T18:41:53.665Z,17.50
2022-10-11T18:44:25.439Z,18.60
2022-10-11T18:46:56.841Z,19.90
2022-10-11T18:49:28.558Z,23.90
2022-10-11T18:52:00.818Z,24.20
2022-10-11T18:54:35.236Z,23.70
2022-10-11T18:57:06.799Z,25.20
2022-10-11T18:59:38.504Z,24.10
2022-10-11T19:02:11.402Z,24.00
2022-10-11T19:04:42.887Z,24.30
2022-10-11T19:07:14.290Z,25.00
2022-10-11T19:09:47.125Z,24.40
2022-10-11T19:12:19.306Z,25.40
2022-10-11T19:14:51.359Z,27.10
2022-10-11T19:17:23.047Z,24.70
2022-10-11T19:19:54.864Z,25.80
2022-10-11T19:22:26.418Z,25.30
2022-10-11T19:24:57.839Z,26.10
2022-10-11T19:27:29.440Z,28.10
2022-10-11T19:30:01.403Z,28.50
2022-10-11T19:32:32.943Z,28.50
2022-10-11T19:35:04.506Z,25.60
2022-10-11T19:37:35.976Z,23.80
2022-10-11T19:40:09.834Z,22.90
2022-10-11T19:42:41.311Z,21.70
2022-10-11T19:45:13.442Z,22.80
2022-10-11T19:47:44.847Z,27.80
2022-10-11T19:50:16.526Z,27.30
2022-10-11T19:52:47.970Z,27.80
2022-10-11T19:55:19.397Z,29.10
2022-10-11T19:57:50.819Z,28.20
2022-10-11T20:00:22.514Z,26.90
2022-10-11T20:02:53.843Z,26.70
2022-10-11T20:05:25.309Z,27.90
2022-10-11T20:07:56.690Z,27.40
2022-10-11T20:10:28.195Z,27.60
2022-10-11T20:12:59.757Z,27.20
2022-10-11T20:15:31.141Z,29.60
2022-10-11T20:18:02.539Z,29.80
2022-10-11T20:20:33.997Z,33.00
2022-10-11T20:23:05.461Z,33.80
2022-10-11T20:25:36.876Z,35.20
2022-10-11T20:28:08.482Z,30.90
2022-10-11T20:30:44.402Z,26.70
2022-10-11T20:33:15.769Z,27.20
2022-10-11T20:35:57.145Z,25.10
2022-10-11T20:38:29.412Z,26.70
2022-10-11T20:41:05.592Z,27.30
2022-10-11T20:43:37.177Z,29.20
2022-10-11T20:46:10.681Z,34.00
2022-10-11T20:48:42.808Z,33.50
2022-10-11T20:51:14.247Z,33.10
2022-10-11T20:53:45.706Z,37.20
2022-10-11T20:56:19.414Z,37.00
2022-10-11T21:01:24.237Z,33.90
2022-10-11T21:03:57.862Z,33.10
2022-10-11T21:09:00.344Z,31.60
2022-10-11T21:11:33.505Z,33.80
2022-10-11T21:14:07.184Z,32.10
2022-10-11T21:16:38.607Z,30.60
2022-10-11T21:19:13.214Z,34.10
2022-10-11T21:21:50.968Z,34.30
2022-10-11T21:24:24.948Z,35.60
2022-10-11T21:27:00.473Z,36.00
2022-10-11T21:29:32.376Z,29.90
2022-10-11T21:32:03.897Z,30.80
2022-10-11T21:34:35.357Z,31.30
2022-10-11T21:37:06.894Z,31.50
2022-10-11T21:39:38.357Z,32.70
2022-10-11T21:42:09.763Z,32.80
2022-10-11T21:44:43.454Z,30.40
2022-10-11T21:49:47.866Z,42.70
2022-10-11T21:52:19.254Z,44.90
2022-10-11T21:54:50.741Z,45.60
2022-10-11T21:57:22.201Z,44.00
2022-10-11T21:59:53.655Z,44.30
2022-10-11T22:02:28.173Z,44.20
2022-10-11T22:04:59.726Z,45.10
2022-10-11T22:07:31.301Z,46.70
2022-10-11T22:10:02.857Z,45.10
2022-10-11T22:12:34.804Z,44.40
2022-10-11T22:15:08.363Z,43.80
2022-10-11T22:17:39.932Z,45.00
2022-10-11T22:20:16.861Z,42.80
2022-10-11T22:22:48.485Z,43.40
2022-10-11T22:25:20.165Z,44.80
2022-10-11T22:27:51.667Z,36.70
2022-10-11T22:30:23.650Z,33.40
2022-10-11T22:32:55.239Z,32.50
2022-10-11T22:35:27.010Z,32.60
2022-10-11T22:37:58.618Z,34.40
2022-10-11T22:40:30.183Z,32.50
2022-10-11T22:43:02.037Z,31.30
2022-10-11T22:45:33.670Z,40.60
2022-10-11T22:48:05.531Z,42.40
2022-10-11T22:50:37.220Z,41.50
2022-10-11T22:53:09.243Z,41.60
2022-10-11T22:55:41.253Z,44.30
2022-10-11T22:58:12.841Z,59.00
2022-10-11T23:00:44.902Z,50.20
